createdAt,value
2018-05-15T00:02:21.169Z,7.03
2018-05-15T00:04:48.765Z,5.83
2018-05-15T00:07:16.408Z,5.97
2018-05-15T00:09:44.032Z,6.03
2018-05-15T00:12:11.617Z,9.73
2018-05-15T00:14:39.203Z,5.60
2018-05-15T00:17:06.838Z,7.70
2018-05-15T00:19:34.474Z,7.27
2018-05-15T00:22:02.114Z,8.27
2018-05-15T00:24:29.678Z,6.13
2018-05-15T00:26:58.034Z,6.17
2018-05-15T00:29:26.436Z,7.17
2018-05-15T00:31:54.080Z,6.33
2018-05-15T00:34:22.475Z,11.40
2018-05-15T00:36:50.085Z,6.03
2018-05-15T00:39:17.662Z,8.03
2018-05-15T00:41:46.009Z,6.53
2018-05-15T00:44:13.590Z,5.40
2018-05-15T00:46:41.185Z,5.27
2018-05-15T00:49:08.776Z,5.57
2018-05-15T00:51:36.420Z,4.83
2018-05-15T00:54:04.016Z,6.43
2018-05-15T00:56:31.640Z,5.80
2018-05-15T00:58:59.211Z,5.57
2018-05-15T01:01:26.825Z,7.03
2018-05-15T01:03:54.478Z,6.30
2018-05-15T01:06:22.066Z,5.47
2018-05-15T01:08:49.685Z,8.17
2018-05-15T01:11:17.292Z,6.53
2018-05-15T01:13:44.923Z,8.40
2018-05-15T01:16:12.565Z,6.03
2018-05-15T01:18:40.191Z,8.17
2018-05-15T01:21:07.795Z,6.77
2018-05-15T01:23:35.388Z,5.93
2018-05-15T01:26:03.072Z,10.97
2018-05-15T01:28:30.681Z,10.17
2018-05-15T01:30:58.345Z,7.17
2018-05-15T01:33:26.718Z,6.90
2018-05-15T01:35:54.343Z,8.27
2018-05-15T01:38:21.970Z,7.23
2018-05-15T01:40:49.572Z,7.80
2018-05-15T01:43:17.254Z,6.13
2018-05-15T01:45:44.884Z,5.93
2018-05-15T01:48:12.481Z,7.07
2018-05-15T01:50:40.109Z,7.10
2018-05-15T01:53:07.919Z,6.50
2018-05-15T01:55:36.284Z,13.47
2018-05-15T01:58:03.961Z,7.80
2018-05-15T02:00:32.350Z,9.20
2018-05-15T02:03:00.822Z,7.17
2018-05-15T02:05:29.169Z,6.87
2018-05-15T02:07:56.778Z,8.70
2018-05-15T02:10:24.396Z,6.20
2018-05-15T02:12:52.745Z,7.77
2018-05-15T02:15:20.353Z,6.53
2018-05-15T02:17:48.758Z,6.17
2018-05-15T02:20:16.361Z,9.63
2018-05-15T02:22:43.996Z,10.37
2018-05-15T02:25:11.607Z,6.73
2018-05-15T02:27:39.977Z,6.93
2018-05-15T02:30:08.569Z,7.43
2018-05-15T02:32:36.931Z,7.70
2018-05-15T02:35:04.537Z,10.60
2018-05-15T02:37:32.141Z,7.87
2018-05-15T02:39:59.712Z,6.90
2018-05-15T02:42:28.057Z,10.27
2018-05-15T02:44:55.641Z,10.03
2018-05-15T02:47:23.235Z,8.00
2018-05-15T02:49:50.827Z,9.00
2018-05-15T02:52:18.467Z,10.03
2018-05-15T02:54:46.131Z,7.60
2018-05-15T02:57:13.755Z,7.43
2018-05-15T02:59:42.129Z,7.30
2018-05-15T03:02:10.545Z,10.10
2018-05-15T03:04:39.025Z,7.83
2018-05-15T03:07:07.656Z,10.03
2018-05-15T03:09:35.310Z,12.27
2018-05-15T03:12:03.720Z,10.47
2018-05-15T03:14:33.013Z,10.03
2018-05-15T03:17:00.850Z,11.20
2018-05-15T03:19:28.440Z,8.30
2018-05-15T03:22:20.707Z,8.07
2018-05-15T03:24:48.276Z,11.40
2018-05-15T03:27:15.888Z,10.83
2018-05-15T03:29:43.467Z,8.13
2018-05-15T03:32:11.846Z,7.13
2018-05-15T03:34:39.436Z,8.23
2018-05-15T03:37:07.064Z,9.43
2018-05-15T03:39:34.679Z,7.90
2018-05-15T03:42:02.286Z,9.23
2018-05-15T03:44:30.679Z,12.70
2018-05-15T03:46:58.287Z,9.23
2018-05-15T03:49:25.869Z,6.83
2018-05-15T03:51:54.240Z,8.23
2018-05-15T03:54:22.584Z,8.40
2018-05-15T03:56:50.204Z,7.90
2018-05-15T03:59:17.801Z,18.20
2018-05-15T04:01:57.119Z,7.13
2018-05-15T04:04:36.482Z,10.53
2018-05-15T04:07:15.693Z,7.80
2018-05-15T04:09:43.297Z,10.47
2018-05-15T04:12:10.852Z,6.60
2018-05-15T04:14:39.322Z,7.23
2018-05-15T04:17:06.962Z,8.50
2018-05-15T04:19:34.582Z,7.60
2018-05-15T04:22:02.204Z,9.00
2018-05-15T04:24:29.856Z,9.97
2018-05-15T04:26:57.496Z,10.13
2018-05-15T04:29:25.142Z,10.50
2018-05-15T04:31:52.683Z,6.93
2018-05-15T04:34:20.327Z,11.20
2018-05-15T04:36:48.351Z,6.43
2018-05-15T04:39:15.946Z,9.67
2018-05-15T04:41:43.545Z,8.03
2018-05-15T04:44:11.181Z,8.00
2018-05-15T04:46:38.831Z,6.70
2018-05-15T04:49:07.235Z,7.83
2018-05-15T04:51:34.857Z,6.70
2018-05-15T04:54:02.530Z,7.27
2018-05-15T04:56:30.863Z,9.57
2018-05-15T04:58:58.469Z,9.53
2018-05-15T05:01:26.791Z,8.23
2018-05-15T05:03:54.352Z,8.40
2018-05-15T05:06:21.941Z,6.23
2018-05-15T05:08:49.574Z,7.90
2018-05-15T05:11:17.220Z,7.33
2018-05-15T05:13:44.827Z,6.57
2018-05-15T05:16:12.490Z,7.03
2018-05-15T05:18:41.022Z,9.23
2018-05-15T05:21:08.716Z,10.57
2018-05-15T05:23:37.197Z,8.95
2018-05-15T05:26:04.852Z,8.43
2018-05-15T05:28:32.458Z,5.97
2018-05-15T05:31:00.834Z,8.57
2018-05-15T05:33:29.224Z,9.07
2018-05-15T05:35:56.921Z,10.23
2018-05-15T05:38:24.533Z,5.95
2018-05-15T05:40:53.131Z,6.07
2018-05-15T05:43:20.773Z,9.93
2018-05-15T05:45:48.390Z,11.63
2018-05-15T05:48:16.862Z,7.28
2018-05-15T05:50:44.442Z,7.72
2018-05-15T05:53:12.054Z,8.23
2018-05-15T05:55:39.614Z,8.00
2018-05-15T05:58:07.210Z,7.47
2018-05-15T06:00:35.717Z,9.18
2018-05-15T06:03:03.292Z,8.23
2018-05-15T06:05:33.769Z,6.12
2018-05-15T06:08:01.377Z,9.15
2018-05-15T06:10:29.796Z,9.80
2018-05-15T06:12:57.417Z,8.90
2018-05-15T06:15:25.853Z,9.00
2018-05-15T06:17:53.484Z,8.27
2018-05-15T06:20:21.182Z,9.20
2018-05-15T06:22:48.768Z,7.37
2018-05-15T06:25:17.733Z,6.45
2018-05-15T06:27:45.417Z,9.30
2018-05-15T06:30:13.033Z,6.35
2018-05-15T06:32:40.609Z,7.15
2018-05-15T06:35:08.261Z,8.15
2018-05-15T06:37:35.836Z,7.57
2018-05-15T06:40:03.485Z,8.23
2018-05-15T06:42:31.083Z,6.87
2018-05-15T06:45:00.410Z,10.07
2018-05-15T06:47:28.038Z,10.18
2018-05-15T06:49:56.775Z,8.48
2018-05-15T06:52:24.398Z,11.27
2018-05-15T06:54:52.047Z,8.57
2018-05-15T06:57:20.430Z,8.88
2018-05-15T06:59:48.836Z,8.35
2018-05-15T07:02:16.446Z,5.90
2018-05-15T07:04:44.074Z,7.82
2018-05-15T07:07:11.740Z,7.35
2018-05-15T07:09:39.421Z,8.70
2018-05-15T07:12:07.057Z,7.68
2018-05-15T07:14:34.743Z,6.62
2018-05-15T07:17:02.312Z,6.37
2018-05-15T07:19:30.678Z,5.82
2018-05-15T07:21:58.450Z,6.62
2018-05-15T07:24:26.110Z,6.72
2018-05-15T07:26:53.713Z,7.55
2018-05-15T07:29:22.127Z,7.03
2018-05-15T07:31:49.745Z,6.18
2018-05-15T07:34:17.383Z,8.15
2018-05-15T07:36:45.765Z,8.15
2018-05-15T07:39:13.362Z,5.72
2018-05-15T07:41:40.981Z,6.30
2018-05-15T07:44:08.750Z,6.15
2018-05-15T07:46:37.132Z,6.43
2018-05-15T07:49:05.705Z,6.70
2018-05-15T07:51:33.340Z,7.03
2018-05-15T07:54:00.961Z,7.45
2018-05-15T07:56:28.607Z,7.40
2018-05-15T07:58:56.984Z,6.50
2018-05-15T08:01:24.669Z,6.25
2018-05-15T08:03:52.305Z,5.05
2018-05-15T08:06:20.714Z,5.30
2018-05-15T08:08:48.337Z,5.12
2018-05-15T08:11:16.745Z,7.12
2018-05-15T08:13:44.322Z,4.53
2018-05-15T08:16:11.957Z,5.80
2018-05-15T08:18:39.548Z,7.03
2018-05-15T08:21:07.200Z,6.43
2018-05-15T08:23:34.830Z,5.80
2018-05-15T08:26:02.497Z,6.62
2018-05-15T08:28:30.080Z,4.72
2018-05-15T08:30:57.808Z,5.68
2018-05-15T08:33:25.316Z,6.82
2018-05-15T08:35:53.012Z,6.25
2018-05-15T08:38:21.644Z,6.15
2018-05-15T08:40:49.338Z,4.25
2018-05-15T08:43:16.961Z,4.72
2018-05-15T08:45:44.649Z,5.32
2018-05-15T08:48:12.237Z,8.38
2018-05-15T08:50:40.625Z,4.50
2018-05-15T08:53:08.996Z,5.85
2018-05-15T08:55:37.368Z,6.40
2018-05-15T08:58:05.771Z,4.90
2018-05-15T09:00:33.513Z,7.90
2018-05-15T09:03:01.904Z,4.72
2018-05-15T09:05:29.521Z,6.20
2018-05-15T09:07:57.105Z,7.12
2018-05-15T09:10:25.501Z,7.15
2018-05-15T09:12:53.957Z,7.47
2018-05-15T09:15:21.617Z,4.30
2018-05-15T09:17:49.237Z,5.78
2018-05-15T09:20:16.903Z,5.82
2018-05-15T09:22:44.513Z,4.70
2018-05-15T09:25:12.901Z,6.10
2018-05-15T09:27:41.514Z,4.68
2018-05-15T09:30:09.144Z,4.55
2018-05-15T09:32:37.570Z,3.85
2018-05-15T09:35:05.295Z,5.82
2018-05-15T09:37:32.932Z,3.92
2018-05-15T09:40:00.586Z,5.65
2018-05-15T09:42:28.212Z,5.82
2018-05-15T09:44:55.867Z,3.53
2018-05-15T09:47:24.941Z,3.87
2018-05-15T09:49:53.620Z,4.25
2018-05-15T09:52:22.115Z,3.90
2018-05-15T09:54:50.348Z,4.53
2018-05-15T09:57:18.834Z,4.97
2018-05-15T09:59:47.619Z,4.03
2018-05-15T10:02:17.663Z,3.85
2018-05-15T10:04:45.329Z,3.87
2018-05-15T10:07:13.909Z,3.95
2018-05-15T10:09:42.183Z,7.70
2018-05-15T10:12:11.152Z,5.15
2018-05-15T10:14:39.720Z,6.65
2018-05-15T10:17:09.395Z,4.82
2018-05-15T10:19:38.893Z,4.78
2018-05-15T10:22:07.474Z,4.05
2018-05-15T10:24:38.004Z,4.70
2018-05-15T10:27:07.387Z,3.87
2018-05-15T10:29:36.722Z,5.25
2018-05-15T10:32:06.107Z,5.75
2018-05-15T10:34:33.885Z,7.75
2018-05-15T10:37:01.635Z,5.72
2018-05-15T10:39:29.266Z,5.15
2018-05-15T10:41:59.349Z,5.68
2018-05-15T10:44:27.982Z,4.78
2018-05-15T10:46:55.741Z,3.62
2018-05-15T10:49:24.187Z,5.10
2018-05-15T10:51:54.063Z,6.32
2018-05-15T10:54:21.680Z,6.90
2018-05-15T10:56:49.378Z,4.47
2018-05-15T10:59:18.735Z,6.07
2018-05-15T11:01:47.478Z,4.28
2018-05-15T11:04:15.128Z,7.75
2018-05-15T11:06:42.843Z,6.20
2018-05-15T11:09:11.165Z,4.32
2018-05-15T11:11:41.578Z,10.18
2018-05-15T11:14:09.251Z,7.12
2018-05-15T11:16:38.833Z,5.18
2018-05-15T11:19:19.162Z,4.72
2018-05-15T11:22:00.530Z,6.20
2018-05-15T11:24:42.470Z,4.65
2018-05-15T11:27:10.188Z,4.93
2018-05-15T11:29:37.900Z,7.00
2018-05-15T11:32:06.158Z,4.47
2018-05-15T11:34:33.884Z,5.50
2018-05-15T11:37:01.564Z,7.47
2018-05-15T11:39:29.262Z,5.53
2018-05-15T11:41:57.042Z,6.28
2018-05-15T11:44:24.633Z,7.43
2018-05-15T11:46:52.626Z,5.45
2018-05-15T11:49:22.758Z,5.80
2018-05-15T11:51:51.386Z,7.87
2018-05-15T11:54:19.289Z,9.07
2018-05-15T11:56:47.956Z,5.70
2018-05-15T11:59:16.496Z,5.95
2018-05-15T12:01:44.970Z,6.37
2018-05-15T12:04:15.536Z,5.97
2018-05-15T12:06:44.168Z,5.72
2018-05-15T12:09:13.648Z,4.22
2018-05-15T12:11:42.102Z,5.07
2018-05-15T12:14:13.485Z,3.83
2018-05-15T12:16:41.234Z,2.78
2018-05-15T12:19:08.932Z,3.97
2018-05-15T12:21:40.373Z,5.47
2018-05-15T12:24:08.190Z,2.67
2018-05-15T12:26:36.030Z,2.87
2018-05-15T12:29:03.693Z,3.00
2018-05-15T12:31:35.289Z,3.58
2018-05-15T12:34:03.778Z,4.07
2018-05-15T12:36:32.343Z,5.45
2018-05-15T12:39:00.048Z,6.53
2018-05-15T12:41:27.891Z,6.90
2018-05-15T12:43:56.265Z,6.80
2018-05-15T12:46:26.776Z,5.75
2018-05-15T12:48:55.022Z,8.15
2018-05-15T12:51:23.384Z,7.37
2018-05-15T12:53:53.444Z,8.50
2018-05-15T12:56:21.211Z,9.50
2018-05-15T12:58:50.311Z,8.15
2018-05-15T13:01:20.305Z,6.93
2018-05-15T13:03:48.708Z,6.50
2018-05-15T13:06:18.110Z,6.85
2018-05-15T13:08:46.574Z,8.80
2018-05-15T13:11:15.654Z,5.57
2018-05-15T13:13:43.299Z,5.20
2018-05-15T13:16:11.048Z,7.93
2018-05-15T13:18:39.302Z,5.85
2018-05-15T13:21:07.108Z,5.50
2018-05-15T13:23:34.810Z,7.97
2018-05-15T13:26:04.091Z,6.62
2018-05-15T13:28:34.400Z,7.00
2018-05-15T13:31:02.078Z,7.10
2018-05-15T13:33:31.836Z,6.50
2018-05-15T13:35:59.567Z,6.70
2018-05-15T13:38:28.097Z,6.50
2018-05-15T13:40:56.002Z,5.50
2018-05-15T13:43:25.663Z,6.72
2018-05-15T13:45:53.405Z,5.80
2018-05-15T13:48:22.690Z,7.60
2018-05-15T13:50:51.143Z,7.50
2018-05-15T13:53:19.824Z,5.53
2018-05-15T13:55:49.505Z,6.37
2018-05-15T13:58:18.879Z,5.60
2018-05-15T14:00:46.548Z,6.03
2018-05-15T14:03:14.822Z,7.35
2018-05-15T14:05:44.093Z,5.50
2018-05-15T14:08:12.479Z,4.55
2018-05-15T14:10:42.685Z,6.90
2018-05-15T14:13:11.931Z,5.72
2018-05-15T14:15:40.506Z,6.20
2018-05-15T14:18:08.112Z,9.10
2018-05-15T14:20:37.306Z,10.43
2018-05-15T14:23:05.437Z,4.78
2018-05-15T14:25:33.978Z,8.82
2018-05-15T14:28:01.911Z,10.63
2018-05-15T14:30:30.439Z,9.70
2018-05-15T14:32:58.890Z,9.35
2018-05-15T14:35:27.404Z,5.43
2018-05-15T14:37:56.259Z,6.15
2018-05-15T14:40:24.941Z,5.80
2018-05-15T14:43:04.375Z,6.32
2018-05-15T14:45:32.937Z,8.77
2018-05-15T14:48:00.715Z,6.15
2018-05-15T14:50:28.374Z,8.13
2018-05-15T14:52:57.269Z,7.10
2018-05-15T14:55:24.863Z,6.30
2018-05-15T14:57:53.293Z,6.20
2018-05-15T15:00:20.990Z,7.40
2018-05-15T15:02:50.283Z,5.57
2018-05-15T15:05:18.393Z,6.72
2018-05-15T15:07:46.765Z,7.55
2018-05-15T15:10:16.308Z,6.60
2018-05-15T15:12:44.985Z,6.50
2018-05-15T15:15:12.735Z,7.05
2018-05-15T15:17:40.406Z,6.70
2018-05-15T15:20:08.087Z,7.50
2018-05-15T15:22:38.438Z,7.60
2018-05-15T15:25:06.112Z,6.53
2018-05-15T15:27:34.563Z,6.45
2018-05-15T15:30:02.206Z,8.52
2018-05-15T15:32:36.380Z,9.80
2018-05-15T15:35:04.991Z,7.30
2018-05-15T15:37:33.331Z,10.25
2018-05-15T15:40:01.765Z,8.85
2018-05-15T15:42:29.538Z,10.57
2018-05-15T15:44:58.748Z,9.98
2018-05-15T15:47:27.259Z,8.40
2018-05-15T15:49:55.707Z,11.63
2018-05-15T15:52:23.480Z,10.03
2018-05-15T15:54:53.337Z,11.07
2018-05-15T15:57:29.007Z,10.70
2018-05-15T15:59:58.480Z,12.13
2018-05-15T16:02:27.046Z,15.80
2018-05-15T16:04:55.550Z,10.60
2018-05-15T16:07:24.090Z,14.87
2018-05-15T16:09:52.533Z,12.57
2018-05-15T16:12:20.417Z,13.13
2018-05-15T16:14:48.112Z,12.50
2018-05-15T16:17:15.865Z,14.13
2018-05-15T16:19:46.145Z,12.20
2018-05-15T16:22:14.781Z,12.40
2018-05-15T16:24:43.206Z,13.53
2018-05-15T16:27:10.875Z,12.90
2018-05-15T16:29:39.640Z,12.93
2018-05-15T16:32:07.292Z,9.20
2018-05-15T16:34:37.246Z,11.40
2018-05-15T16:37:07.739Z,11.27
2018-05-15T16:39:35.478Z,11.93
2018-05-15T16:42:03.949Z,11.93
2018-05-15T16:44:31.652Z,11.67
2018-05-15T16:47:01.004Z,14.90
2018-05-15T16:49:30.345Z,12.50
2018-05-15T16:51:57.991Z,12.67
2018-05-15T16:54:25.756Z,12.10
2018-05-15T16:56:53.384Z,15.40
2018-05-15T16:59:22.583Z,13.37
2018-05-15T17:01:51.262Z,16.47
2018-05-15T17:04:18.970Z,12.77
2018-05-15T17:06:47.486Z,15.17
2018-05-15T17:09:15.250Z,14.33
2018-05-15T17:11:42.910Z,11.47
2018-05-15T17:14:12.290Z,11.77
2018-05-15T17:16:40.797Z,18.27
2018-05-15T17:19:09.882Z,14.47
2018-05-15T17:21:38.404Z,12.90
2018-05-15T17:24:06.909Z,14.07
2018-05-15T17:26:34.564Z,15.30
2018-05-15T17:29:04.286Z,15.03
2018-05-15T17:31:32.008Z,12.63
2018-05-15T17:33:59.816Z,12.23
2018-05-15T17:36:28.969Z,12.27
2018-05-15T17:38:57.545Z,12.53
2018-05-15T17:41:25.425Z,12.40
2018-05-15T17:43:54.813Z,14.37
2018-05-15T17:46:23.179Z,11.80
2018-05-15T17:48:50.983Z,11.97
2018-05-15T17:51:21.534Z,11.57
2018-05-15T17:53:49.208Z,13.20
2018-05-15T17:56:16.918Z,12.73
2018-05-15T17:58:44.576Z,13.57
2018-05-15T18:01:15.660Z,14.87
2018-05-15T18:03:44.769Z,16.60
2018-05-15T18:06:12.477Z,16.13
2018-05-15T18:08:40.456Z,16.17
2018-05-15T18:11:10.178Z,15.30
2018-05-15T18:13:37.974Z,18.63
2018-05-15T18:16:07.198Z,15.93
2018-05-15T18:18:35.788Z,16.27
2018-05-15T18:21:03.641Z,17.70
2018-05-15T18:23:33.896Z,17.10
2018-05-15T18:26:02.267Z,17.00
2018-05-15T18:28:30.591Z,16.27
2018-05-15T18:30:58.715Z,16.73
2018-05-15T18:33:27.260Z,16.87
2018-05-15T18:35:55.674Z,18.90
2018-05-15T18:38:24.453Z,17.83
2018-05-15T18:40:53.310Z,16.47
2018-05-15T18:43:21.402Z,17.10
2018-05-15T18:45:49.371Z,21.93
2018-05-15T18:48:17.732Z,20.37
2018-05-15T18:50:45.795Z,19.40
2018-05-15T18:53:13.663Z,16.90
2018-05-15T18:55:41.919Z,20.27
2018-05-15T18:58:09.806Z,16.80
2018-05-15T19:00:37.684Z,21.50
2018-05-15T19:03:05.518Z,21.73
2018-05-15T19:05:33.812Z,20.33
2018-05-15T19:08:02.627Z,20.57
2018-05-15T19:10:30.577Z,21.20
2018-05-15T19:12:58.799Z,21.73
2018-05-15T19:15:26.806Z,20.47
2018-05-15T19:17:54.867Z,18.73
2018-05-15T19:20:24.964Z,20.33
2018-05-15T19:22:53.139Z,18.23
2018-05-15T19:25:21.740Z,16.27
2018-05-15T19:27:49.844Z,17.83
2018-05-15T19:30:19.472Z,15.00
2018-05-15T19:32:55.644Z,16.37
2018-05-15T19:35:29.988Z,19.73
2018-05-15T19:37:57.944Z,18.00
2018-05-15T19:40:29.836Z,15.50
2018-05-15T19:42:58.327Z,15.10
2018-05-15T19:45:27.815Z,13.33
2018-05-15T19:47:56.570Z,14.70
2018-05-15T19:50:28.034Z,12.27
2018-05-15T19:52:57.426Z,11.40
2018-05-15T19:55:26.285Z,13.07
2018-05-15T19:57:55.358Z,13.63
2018-05-15T20:00:24.336Z,18.93
2018-05-15T20:02:53.309Z,13.83
2018-05-15T20:05:21.334Z,13.87
2018-05-15T20:07:49.411Z,14.37
2018-05-15T20:10:18.556Z,13.87
2018-05-15T20:12:49.506Z,11.57
2018-05-15T20:15:18.058Z,13.07
2018-05-15T20:17:47.181Z,13.13
2018-05-15T20:20:17.378Z,9.37
2018-05-15T20:22:46.301Z,12.17
2018-05-15T20:25:16.253Z,10.83
2018-05-15T20:27:44.423Z,12.87
2018-05-15T20:30:13.777Z,13.80
2018-05-15T20:32:43.918Z,13.23
2018-05-15T20:35:12.145Z,12.77
2018-05-15T20:37:41.922Z,15.30
2018-05-15T20:40:11.854Z,12.37
2018-05-15T20:42:41.836Z,13.27
2018-05-15T20:45:13.465Z,10.67
2018-05-15T20:47:43.486Z,14.30
2018-05-15T20:50:12.193Z,11.53
2018-05-15T20:52:41.663Z,11.50
2018-05-15T20:55:13.769Z,12.23
2018-05-15T20:57:45.018Z,11.37
2018-05-15T21:00:15.012Z,11.87
2018-05-15T21:02:43.501Z,12.70
2018-05-15T21:08:24.343Z,12.73
2018-05-15T21:10:54.278Z,10.97
2018-05-15T21:13:26.401Z,12.33
2018-05-15T21:15:54.915Z,12.00
2018-05-15T21:18:25.648Z,11.97
2018-05-15T21:20:53.594Z,11.37
2018-05-15T21:26:21.895Z,12.97
2018-05-15T21:28:50.642Z,20.37
2018-05-15T21:31:19.839Z,21.03
2018-05-15T21:33:49.250Z,13.63
2018-05-15T21:36:20.757Z,18.10
2018-05-15T21:38:52.527Z,20.97
2018-05-15T21:41:24.775Z,19.13
2018-05-15T21:43:56.594Z,15.13
2018-05-15T21:46:25.864Z,19.93
2018-05-15T21:48:57.027Z,19.57
2018-05-15T21:51:28.082Z,16.87
2018-05-15T21:53:58.813Z,17.93
2018-05-15T21:56:29.113Z,20.70
2018-05-15T21:58:58.797Z,15.73
2018-05-15T22:01:28.358Z,17.73
2018-05-15T22:03:58.824Z,31.87
2018-05-15T22:06:28.292Z,21.70
2018-05-15T22:12:18.147Z,21.03
2018-05-15T22:15:00.239Z,25.20
2018-05-15T22:17:47.300Z,23.37
2018-05-15T22:20:29.748Z,22.20
2018-05-15T22:22:59.130Z,23.63
2018-05-15T22:25:28.338Z,22.93
2018-05-15T22:27:57.911Z,22.23
2018-05-15T22:33:28.053Z,23.53
2018-05-15T22:35:56.322Z,22.70
2018-05-15T22:38:32.551Z,28.77
2018-05-15T22:41:05.514Z,25.57
2018-05-15T22:43:34.416Z,21.27
2018-05-15T22:46:03.789Z,26.90
2018-05-15T22:48:37.917Z,24.47
2018-05-15T22:51:09.398Z,23.97
2018-05-15T22:53:41.759Z,22.60
2018-05-15T22:56:11.920Z,22.33
2018-05-15T22:58:41.645Z,27.40
2018-05-15T23:01:10.370Z,25.77
2018-05-15T23:03:41.167Z,21.90
2018-05-15T23:06:12.819Z,21.07
2018-05-15T23:08:44.379Z,20.80
2018-05-15T23:11:12.416Z,22.93
2018-05-15T23:13:43.398Z,23.97
2018-05-15T23:16:16.161Z,24.50
2018-05-15T23:18:48.649Z,25.57
2018-05-15T23:21:18.772Z,26.07
2018-05-15T23:23:50.508Z,25.07
2018-05-15T23:26:18.455Z,25.23
2018-05-15T23:28:49.104Z,23.43
2018-05-15T23:31:18.893Z,19.67
2018-05-15T23:33:51.210Z,24.00
2018-05-15T23:36:22.435Z,21.23
2018-05-15T23:38:52.510Z,22.87
2018-05-15T23:41:23.303Z,20.33
2018-05-15T23:43:53.989Z,25.27
2018-05-15T23:46:22.156Z,21.50
2018-05-15T23:48:53.920Z,26.50
2018-05-15T23:51:22.837Z,22.70
2018-05-15T23:54:04.782Z,20.50
2018-05-15T23:56:33.368Z,21.43
2018-05-15T23:59:11.379Z,24.07
